Time;durP1;ratioP1;P1;durP2;ratioP2;P2;SDS_P1;SDS_P2;PMS_P1;PMS_P2;Temp;Humidity;BMP_temperature;BMP_pressure;BME280_temperature;BME280_humidity;BME280_pressure;Samples;Min_cycle;Max_cycle;Signal;HPM_P1;HPM_P2
2021/08/10 00:00:48;;;;;;;1.53;1.43;;;15.00;99.90;;;;;;5014946;28;20527;-63
2021/08/10 00:03:14;;;;;;;1.80;1.70;;;15.00;99.90;;;;;;5014699;28;20503;-63
2021/08/10 00:05:40;;;;;;;1.60;1.50;;;15.00;99.90;;;;;;5013304;28;20243;-64
2021/08/10 00:08:06;;;;;;;1.87;1.77;;;14.90;99.90;;;;;;5014094;28;20942;-64
2021/08/10 00:10:31;;;;;;;1.93;1.30;;;14.90;99.90;;;;;;5014491;28;20189;-63
2021/08/10 00:12:57;;;;;;;2.40;1.60;;;14.90;99.90;;;;;;5014373;28;20706;-64
2021/08/10 00:15:23;;;;;;;1.47;1.37;;;14.90;99.90;;;;;;5014386;28;20750;-63
2021/08/10 00:17:49;;;;;;;1.40;1.30;;;14.80;99.90;;;;;;5013948;28;20177;-64
2021/08/10 00:20:15;;;;;;;1.97;1.60;;;14.80;99.90;;;;;;5025806;28;20888;-61
2021/08/10 00:22:41;;;;;;;1.23;1.10;;;14.80;99.90;;;;;;5034198;28;20211;-62
2021/08/10 00:25:07;;;;;;;1.90;1.80;;;14.80;99.90;;;;;;5034178;28;20456;-63
2021/08/10 00:27:33;;;;;;;2.23;2.13;;;14.90;99.90;;;;;;5033439;28;20417;-62
2021/08/10 00:29:59;;;;;;;1.80;1.70;;;14.80;99.90;;;;;;5033627;28;20458;-61
2021/08/10 00:32:25;;;;;;;2.23;2.03;;;14.90;99.90;;;;;;5033886;28;20571;-61
2021/08/10 00:34:53;;;;;;;2.33;2.00;;;14.90;99.90;;;;;;5022585;28;20292;-64
2021/08/10 00:37:19;;;;;;;2.03;1.67;;;14.80;99.90;;;;;;5013835;28;20487;-64
2021/08/10 00:39:45;;;;;;;1.73;1.63;;;14.80;99.90;;;;;;5014107;28;20430;-64
2021/08/10 00:42:11;;;;;;;1.67;1.57;;;14.70;99.90;;;;;;5014326;28;20899;-62
2021/08/10 00:44:37;;;;;;;2.60;2.13;;;14.60;99.90;;;;;;4996398;28;20528;-65
2021/08/10 00:47:03;;;;;;;4.73;1.87;;;14.60;99.90;;;;;;5013557;28;20424;-62
2021/08/10 00:49:29;;;;;;;1.93;1.83;;;14.50;99.90;;;;;;5013683;28;20209;-64
2021/08/10 00:51:54;;;;;;;3.27;2.30;;;14.50;99.90;;;;;;5013749;28;20417;-63
2021/08/10 00:54:20;;;;;;;2.10;2.00;;;14.50;99.90;;;;;;5017889;28;20200;-64
2021/08/10 00:56:46;;;;;;;3.53;2.50;;;14.40;99.90;;;;;;5033327;28;20187;-61
2021/08/10 00:59:12;;;;;;;1.70;1.60;;;14.40;99.90;;;;;;5033302;28;20198;-62
2021/08/10 01:01:37;;;;;;;2.00;1.83;;;14.30;99.90;;;;;;5033538;28;20415;-64
2021/08/10 01:04:03;;;;;;;2.00;1.87;;;14.30;99.90;;;;;;5033433;28;20189;-64
2021/08/10 01:06:39;;;;;;;3.03;2.83;;;14.20;99.90;;;;;;5033500;28;20185;-65
2021/08/10 01:09:07;;;;;;;1.60;1.50;;;14.20;99.90;;;;;;5028960;28;20567;-62
2021/08/10 01:11:47;;;;;;;2.43;2.23;;;14.20;99.90;;;;;;5013523;28;20871;-61
2021/08/10 01:14:19;;;;;;;2.27;1.80;;;14.10;99.90;;;;;;5013649;28;20405;-63
2021/08/10 01:16:56;;;;;;;2.50;1.87;;;14.10;99.90;;;;;;5013358;28;20747;-63
2021/08/10 01:19:46;;;;;;;2.50;1.50;;;14.00;99.90;;;;;;5013386;28;20419;-65
2021/08/10 01:22:16;;;;;;;1.87;1.77;;;14.00;99.90;;;;;;5014604;28;20432;-61
2021/08/10 01:24:50;;;;;;;1.97;1.87;;;14.00;99.90;;;;;;5012403;28;20459;-63
2021/08/10 01:27:47;;;;;;;5.60;2.20;;;14.00;99.90;;;;;;5013075;28;20409;-64
2021/08/10 01:30:18;;;;;;;1.70;1.60;;;13.90;99.90;;;;;;5013663;28;20500;-62
2021/08/10 01:32:46;;;;;;;1.50;1.40;;;13.90;99.90;;;;;;5017524;28;20406;-63
2021/08/10 01:35:14;;;;;;;3.00;2.57;;;14.00;99.90;;;;;;5017521;28;20472;-62
2021/08/10 01:37:42;;;;;;;1.70;1.60;;;13.90;99.90;;;;;;5030170;28;20460;-63
2021/08/10 01:40:11;;;;;;;2.07;1.90;;;14.00;99.90;;;;;;5037323;28;20794;-61
2021/08/10 01:42:38;;;;;;;2.00;1.67;;;13.90;99.90;;;;;;5037121;28;20835;-62
2021/08/10 01:45:06;;;;;;;2.27;2.07;;;13.90;99.90;;;;;;5037056;28;20408;-62
2021/08/10 01:47:32;;;;;;;3.30;2.47;;;13.90;99.90;;;;;;5036589;28;20418;-62
2021/08/10 01:50:00;;;;;;;2.40;2.13;;;13.90;99.90;;;;;;5036922;28;20514;-62
2021/08/10 01:52:27;;;;;;;1.93;1.83;;;13.80;99.90;;;;;;5034903;28;20426;-62
2021/08/10 01:54:53;;;;;;;3.03;2.00;;;13.80;99.90;;;;;;5036755;28;20542;-62
2021/08/10 01:57:19;;;;;;;2.67;2.00;;;13.70;99.90;;;;;;5036408;28;20402;-62
2021/08/10 01:59:50;;;;;;;2.67;1.90;;;13.70;99.90;;;;;;5036787;28;20462;-64
2021/08/10 02:02:17;;;;;;;3.03;2.20;;;13.70;99.90;;;;;;5037104;28;20924;-63
2021/08/10 02:04:44;;;;;;;2.33;2.13;;;13.70;99.90;;;;;;5036752;28;20482;-64
2021/08/10 02:07:10;;;;;;;2.07;1.97;;;13.70;99.90;;;;;;5036007;28;20829;-61
2021/08/10 02:09:38;;;;;;;2.20;2.10;;;13.70;99.90;;;;;;5036646;28;20439;-66
2021/08/10 02:12:04;;;;;;;2.30;1.87;;;13.70;99.90;;;;;;5036663;28;20431;-60
2021/08/10 02:14:31;;;;;;;2.73;2.50;;;13.60;99.90;;;;;;5035026;28;20815;-64
2021/08/10 02:17:01;;;;;;;1.83;1.73;;;13.60;99.90;;;;;;5016476;28;20418;-61
2021/08/10 02:19:28;;;;;;;2.40;2.20;;;13.60;99.90;;;;;;5016746;28;20427;-65
2021/08/10 02:22:01;;;;;;;1.63;1.50;;;13.60;99.90;;;;;;5016443;28;20412;-60
2021/08/10 02:24:35;;;;;;;2.80;2.10;;;13.60;99.90;;;;;;5016837;28;20475;-64
2021/08/10 02:27:07;;;;;;;3.07;2.40;;;13.60;99.90;;;;;;5016239;28;20419;-64
2021/08/10 02:29:39;;;;;;;2.77;2.30;;;13.60;99.90;;;;;;5016757;28;20434;-64
2021/08/10 02:32:07;;;;;;;2.57;1.67;;;13.60;99.90;;;;;;5016386;28;20439;-62
2021/08/10 02:34:33;;;;;;;2.53;2.37;;;13.60;99.90;;;;;;5016330;28;20491;-64
2021/08/10 02:37:01;;;;;;;2.40;2.23;;;13.60;99.90;;;;;;5015793;28;20409;-62
2021/08/10 02:39:29;;;;;;;1.83;1.70;;;13.60;99.90;;;;;;5030756;28;20450;-62
2021/08/10 02:41:56;;;;;;;2.17;1.83;;;13.60;99.90;;;;;;5034519;28;20946;-61
2021/08/10 02:44:24;;;;;;;2.40;2.20;;;13.60;99.90;;;;;;5036052;28;20984;-62
2021/08/10 02:46:50;;;;;;;1.87;1.77;;;13.50;99.90;;;;;;5035653;28;20413;-61
2021/08/10 02:49:16;;;;;;;2.47;2.37;;;13.50;99.90;;;;;;5035736;28;20498;-61
2021/08/10 02:51:41;;;;;;;1.93;1.60;;;13.50;99.90;;;;;;5035850;28;20171;-63
2021/08/10 02:54:08;;;;;;;2.27;1.70;;;13.50;99.90;;;;;;5035479;28;20179;-62
2021/08/10 02:56:41;;;;;;;4.27;2.70;;;13.50;99.90;;;;;;5035089;28;20184;-64
2021/08/10 02:59:18;;;;;;;2.17;2.00;;;13.50;99.90;;;;;;5034378;28;20430;-62
2021/08/10 03:02:14;;;;;;;1.93;1.83;;;13.40;99.90;;;;;;5035563;28;20387;-64
2021/08/10 03:04:46;;;;;;;5.80;1.73;;;13.40;99.90;;;;;;5036024;28;20494;-65
2021/08/10 03:07:12;;;;;;;2.00;1.90;;;13.40;99.90;;;;;;5034818;28;20403;-62
2021/08/10 03:09:38;;;;;;;3.53;2.40;;;13.40;99.90;;;;;;5015778;28;20419;-65
2021/08/10 03:12:06;;;;;;;3.70;2.33;;;13.40;99.90;;;;;;5015752;28;20454;-61
2021/08/10 03:14:33;;;;;;;2.47;2.28;;;13.30;99.90;;;;;;5015722;28;20535;-64
2021/08/10 03:17:03;;;;;;;1.80;1.70;;;13.30;99.90;;;;;;5015642;28;20272;-62
2021/08/10 03:19:31;;;;;;;2.20;2.00;;;13.40;99.90;;;;;;5015386;28;20788;-65
2021/08/10 03:21:58;;;;;;;2.43;2.23;;;13.30;99.90;;;;;;5015493;28;20404;-62
2021/08/10 03:24:25;;;;;;;1.77;1.67;;;13.30;99.90;;;;;;5014333;28;20416;-65
2021/08/10 03:26:53;;;;;;;2.23;2.13;;;13.30;99.90;;;;;;5014841;28;20432;-62
2021/08/10 03:29:21;;;;;;;1.90;1.73;;;13.30;99.90;;;;;;5015252;28;20419;-65
2021/08/10 03:31:47;;;;;;;2.93;2.63;;;13.20;99.90;;;;;;5015462;28;20434;-62
2021/08/10 03:34:13;;;;;;;2.47;2.30;;;13.20;99.90;;;;;;5013835;28;20415;-63
2021/08/10 03:36:40;;;;;;;2.23;2.03;;;13.20;99.90;;;;;;5014824;28;20415;-65
2021/08/10 03:39:06;;;;;;;2.60;2.40;;;13.20;99.90;;;;;;5034379;28;20231;-62
2021/08/10 03:41:32;;;;;;;2.50;2.30;;;13.20;99.90;;;;;;5035112;28;20398;-63
2021/08/10 03:43:58;;;;;;;2.10;1.97;;;13.20;99.90;;;;;;5035018;28;20905;-62
2021/08/10 03:46:28;;;;;;;2.47;2.27;;;13.30;99.90;;;;;;5034814;28;20172;-65
2021/08/10 03:48:54;;;;;;;2.63;2.43;;;13.30;99.90;;;;;;5034574;28;20525;-62
2021/08/10 03:51:20;;;;;;;2.90;2.20;;;13.30;99.90;;;;;;5034654;28;20442;-62
2021/08/10 03:53:47;;;;;;;3.00;2.73;;;13.30;99.90;;;;;;5014512;28;20185;-61
2021/08/10 03:56:14;;;;;;;2.23;2.03;;;13.30;99.90;;;;;;5014602;28;20470;-64
2021/08/10 03:58:41;;;;;;;3.87;2.50;;;13.30;99.90;;;;;;5014470;28;20568;-61
2021/08/10 04:01:09;;;;;;;1.80;1.70;;;13.20;99.90;;;;;;5014889;28;20423;-63
2021/08/10 04:03:36;;;;;;;2.88;2.60;;;13.20;99.90;;;;;;5014771;28;20418;-63
2021/08/10 04:06:05;;;;;;;3.43;2.50;;;13.20;99.90;;;;;;5014763;28;20184;-64
2021/08/10 04:08:31;;;;;;;2.27;2.10;;;13.20;99.90;;;;;;5032604;28;20960;-64
2021/08/10 04:10:57;;;;;;;2.20;2.00;;;13.10;99.90;;;;;;5034434;28;20429;-63
2021/08/10 04:13:24;;;;;;;1.70;1.60;;;13.10;99.90;;;;;;5034601;28;20403;-64
2021/08/10 04:15:53;;;;;;;2.10;1.70;;;13.10;99.90;;;;;;5034225;28;20469;-65
2021/08/10 04:18:22;;;;;;;3.27;2.60;;;13.10;99.90;;;;;;5033563;28;20429;-64
2021/08/10 04:20:52;;;;;;;2.13;2.03;;;13.10;99.90;;;;;;5034157;28;20477;-62
2021/08/10 04:23:18;;;;;;;2.20;2.00;;;13.20;99.90;;;;;;5033671;28;20507;-63
2021/08/10 04:25:44;;;;;;;1.92;1.77;;;13.20;99.90;;;;;;5033833;28;20915;-62
2021/08/10 04:28:10;;;;;;;5.40;2.40;;;13.20;99.90;;;;;;5033546;28;20240;-62
2021/08/10 04:30:37;;;;;;;4.23;2.10;;;13.30;99.90;;;;;;5032586;28;20468;-61
2021/08/10 04:33:04;;;;;;;2.03;1.93;;;13.40;99.90;;;;;;5033867;28;20743;-63
2021/08/10 04:35:30;;;;;;;2.90;2.50;;;13.40;99.90;;;;;;5034128;28;20795;-61
2021/08/10 04:37:55;;;;;;;2.17;2.00;;;13.50;99.90;;;;;;5015401;28;20427;-64
2021/08/10 04:40:21;;;;;;;8.13;2.67;;;13.60;99.90;;;;;;5014025;28;20170;-63
2021/08/10 04:42:47;;;;;;;3.50;2.73;;;13.70;99.90;;;;;;5014025;28;20168;-64
2021/08/10 04:45:13;;;;;;;2.93;2.60;;;13.80;99.90;;;;;;5014061;28;20182;-62
2021/08/10 04:47:38;;;;;;;2.63;2.43;;;13.90;99.90;;;;;;5013510;28;20179;-64
2021/08/10 04:50:05;;;;;;;1.77;1.67;;;13.90;99.90;;;;;;5014258;28;20250;-63
2021/08/10 04:52:30;;;;;;;2.63;2.43;;;14.00;99.90;;;;;;5013755;28;20544;-63
2021/08/10 04:54:57;;;;;;;2.37;2.17;;;14.10;99.90;;;;;;5013919;28;20460;-65
2021/08/10 04:57:24;;;;;;;2.20;2.00;;;14.10;99.90;;;;;;5013486;28;20651;-63
2021/08/10 04:59:50;;;;;;;3.43;3.10;;;14.20;99.90;;;;;;5013969;28;20796;-64
2021/08/10 05:02:17;;;;;;;2.93;2.10;;;14.30;99.90;;;;;;5013874;28;20422;-62
2021/08/10 05:04:43;;;;;;;2.43;2.23;;;14.40;99.90;;;;;;5013757;28;20405;-64
2021/08/10 05:07:09;;;;;;;2.40;1.97;;;14.40;99.90;;;;;;5028400;28;20810;-61
2021/08/10 05:09:34;;;;;;;2.03;1.80;;;14.50;99.90;;;;;;5033218;28;20431;-63
2021/08/10 05:12:00;;;;;;;2.70;1.97;;;14.50;99.90;;;;;;5033437;28;20742;-62
2021/08/10 05:14:26;;;;;;;2.13;2.00;;;14.50;99.90;;;;;;5033380;28;20200;-63
2021/08/10 05:16:51;;;;;;;2.10;2.00;;;14.60;99.90;;;;;;5032889;28;20270;-61
2021/08/10 05:19:17;;;;;;;2.03;1.93;;;14.70;99.90;;;;;;5033187;28;20188;-62
2021/08/10 05:21:43;;;;;;;2.50;2.30;;;14.70;99.90;;;;;;5033124;28;20176;-63
2021/08/10 05:24:09;;;;;;;2.10;1.90;;;14.80;99.90;;;;;;5033167;28;20415;-62
2021/08/10 05:26:34;;;;;;;2.13;1.93;;;14.70;99.90;;;;;;5033003;28;20181;-64
2021/08/10 05:29:00;;;;;;;4.83;1.73;;;14.70;99.90;;;;;;5033218;28;20624;-64
2021/08/10 05:31:25;;;;;;;2.17;1.83;;;14.70;99.90;;;;;;5032967;28;20189;-62
2021/08/10 05:33:51;;;;;;;2.40;2.20;;;14.80;99.90;;;;;;5033116;28;20192;-64
2021/08/10 05:36:19;;;;;;;2.63;2.17;;;14.90;99.90;;;;;;5020762;28;20210;-65
2021/08/10 05:38:49;;;;;;;2.13;1.93;;;15.00;99.90;;;;;;5012929;28;20202;-62
2021/08/10 05:41:15;;;;;;;3.13;1.90;;;15.10;99.90;;;;;;5014923;28;20413;-64
2021/08/10 05:43:41;;;;;;;2.13;2.03;;;15.20;99.90;;;;;;5033155;28;20397;-63
2021/08/10 05:46:07;;;;;;;1.80;1.40;;;15.30;99.90;;;;;;5033135;28;20459;-65
2021/08/10 05:48:32;;;;;;;2.37;2.00;;;15.40;99.90;;;;;;5032562;28;20194;-62
2021/08/10 05:51:00;;;;;;;2.60;2.40;;;15.40;99.90;;;;;;5033119;28;20187;-62
2021/08/10 05:53:25;;;;;;;2.40;2.20;;;15.60;99.90;;;;;;5032382;28;20197;-63
2021/08/10 05:55:51;;;;;;;2.17;2.07;;;15.70;99.90;;;;;;5032973;28;20452;-63
2021/08/10 05:58:17;;;;;;;4.50;2.50;;;15.80;99.90;;;;;;5032520;28;20256;-64
2021/08/10 06:00:42;;;;;;;2.43;2.23;;;15.90;99.90;;;;;;5032929;28;20174;-64
2021/08/10 06:03:08;;;;;;;4.20;2.70;;;15.90;99.90;;;;;;5032892;28;20173;-63
2021/08/10 06:05:34;;;;;;;2.87;2.10;;;16.10;99.90;;;;;;5033025;28;20280;-63
2021/08/10 06:07:59;;;;;;;2.20;2.00;;;16.10;99.90;;;;;;5032149;28;20256;-62
2021/08/10 06:10:26;;;;;;;2.40;2.10;;;16.20;99.90;;;;;;5033075;28;20761;-62
2021/08/10 06:12:52;;;;;;;2.50;2.30;;;16.30;99.90;;;;;;5032964;28;20186;-64
2021/08/10 06:15:17;;;;;;;2.00;1.90;;;16.40;99.90;;;;;;5032599;28;20449;-63
2021/08/10 06:17:44;;;;;;;2.30;2.20;;;16.50;99.90;;;;;;5034242;28;20195;-65
2021/08/10 06:20:10;;;;;;;6.83;2.20;;;16.60;99.90;;;;;;5036595;28;20201;-63
2021/08/10 06:22:36;;;;;;;1.90;1.80;;;16.70;99.90;;;;;;5019505;28;20426;-61
2021/08/10 06:25:03;;;;;;;2.03;1.93;;;16.80;99.90;;;;;;5016553;28;20429;-64
2021/08/10 06:27:29;;;;;;;5.60;2.53;;;16.90;99.90;;;;;;5016037;28;20254;-62
2021/08/10 06:29:55;;;;;;;2.10;2.00;;;;;;;;;;5016185;28;20451;-63
2021/08/10 06:32:21;;;;;;;1.97;1.87;;;17.20;99.90;;;;;;5015268;28;20181;-64
2021/08/10 06:34:47;;;;;;;2.50;1.93;;;17.40;99.90;;;;;;5016345;28;20455;-65
2021/08/10 06:37:13;;;;;;;2.10;1.93;;;17.40;99.90;;;;;;5031286;28;20578;-63
2021/08/10 06:39:38;;;;;;;2.37;2.20;;;17.60;99.90;;;;;;5035495;28;20487;-65
2021/08/10 06:42:04;;;;;;;3.20;2.20;;;17.70;99.90;;;;;;5035871;28;20199;-65
2021/08/10 06:44:30;;;;;;;2.37;2.20;;;17.80;99.90;;;;;;5036025;28;20271;-65
2021/08/10 06:46:55;;;;;;;2.47;2.27;;;17.90;99.90;;;;;;5036293;28;20557;-63
2021/08/10 06:49:21;;;;;;;2.30;2.10;;;18.10;99.90;;;;;;5035765;28;20190;-63
2021/08/10 06:51:47;;;;;;;2.40;1.60;;;18.20;99.90;;;;;;5035537;28;20520;-62
2021/08/10 06:54:12;;;;;;;2.27;2.07;;;18.50;99.90;;;;;;5036175;28;20178;-63
2021/08/10 06:56:38;;;;;;;1.87;1.77;;;18.70;99.90;;;;;;5035510;28;20210;-61
2021/08/10 06:59:03;;;;;;;1.50;1.40;;;19.10;99.90;;;;;;5035664;28;20202;-62
2021/08/10 07:01:29;;;;;;;2.13;1.80;;;19.40;99.90;;;;;;5035663;28;20178;-62
2021/08/10 07:03:55;;;;;;;2.77;2.33;;;19.60;99.90;;;;;;5035587;28;20237;-61
2021/08/10 07:06:21;;;;;;;1.57;1.47;;;19.70;99.90;;;;;;5022891;28;20183;-62
2021/08/10 07:08:52;;;;;;;1.93;1.63;;;19.70;99.90;;;;;;5015428;28;20214;-62
2021/08/10 07:11:17;;;;;;;3.13;2.80;;;19.80;99.90;;;;;;5015911;28;20477;-62
2021/08/10 07:13:43;;;;;;;1.77;1.67;;;19.70;99.90;;;;;;5015754;28;20936;-63
2021/08/10 07:16:09;;;;;;;2.23;2.03;;;19.80;99.90;;;;;;5015515;28;20218;-63
2021/08/10 07:18:37;;;;;;;2.37;2.17;;;20.10;99.90;;;;;;5015206;28;20240;-63
2021/08/10 07:21:03;;;;;;;1.67;1.57;;;20.30;99.90;;;;;;5015398;28;20764;-62
2021/08/10 07:23:29;;;;;;;1.43;1.33;;;20.50;99.90;;;;;;5015713;28;20422;-63
2021/08/10 07:25:54;;;;;;;1.70;1.60;;;20.80;99.90;;;;;;5015622;28;20170;-63
2021/08/10 07:28:20;;;;;;;2.93;1.80;;;21.00;99.90;;;;;;5015543;28;20201;-62
2021/08/10 07:30:45;;;;;;;2.87;1.70;;;21.20;99.90;;;;;;5035128;28;20201;-62
2021/08/10 07:33:11;;;;;;;3.60;2.60;;;21.30;99.90;;;;;;5035029;28;20174;-63
2021/08/10 07:35:36;;;;;;;1.97;1.67;;;21.40;99.90;;;;;;5017776;28;20207;-61
2021/08/10 07:38:04;;;;;;;2.10;2.00;;;21.50;99.90;;;;;;5014342;28;20243;-62
2021/08/10 07:40:29;;;;;;;2.97;1.63;;;21.50;99.90;;;;;;5015035;28;20431;-63
2021/08/10 07:42:55;;;;;;;1.80;1.57;;;21.60;99.90;;;;;;5014867;28;20487;-62
2021/08/10 07:45:21;;;;;;;2.47;1.87;;;21.60;99.90;;;;;;5014907;28;20415;-63
2021/08/10 07:47:46;;;;;;;1.50;1.40;;;21.80;99.90;;;;;;5014537;28;20174;-64
2021/08/10 07:50:12;;;;;;;1.93;1.80;;;22.30;99.90;;;;;;5015084;28;20171;-63
2021/08/10 07:52:38;;;;;;;2.30;1.60;;;23.10;99.90;;;;;;5014741;28;20179;-62
2021/08/10 07:55:04;;;;;;;2.03;1.77;;;24.00;99.90;;;;;;5019568;28;20235;-62
2021/08/10 07:57:30;;;;;;;1.87;1.70;;;24.60;99.90;;;;;;5034246;28;20532;-64
2021/08/10 07:59:56;;;;;;;3.00;2.23;;;25.20;98.70;;;;;;5034185;28;20418;-62
2021/08/10 08:02:21;;;;;;;1.73;1.63;;;25.30;98.40;;;;;;5034597;28;20229;-63
2021/08/10 08:04:47;;;;;;;1.80;1.70;;;25.80;98.10;;;;;;5034472;28;20748;-64
2021/08/10 08:07:12;;;;;;;1.80;1.70;;;26.20;96.10;;;;;;5033989;28;20193;-62
2021/08/10 08:09:38;;;;;;;1.80;1.70;;;26.40;95.50;;;;;;5029279;28;20203;-64
2021/08/10 08:12:04;;;;;;;1.50;1.40;;;26.40;95.10;;;;;;5014406;28;20190;-66
2021/08/10 08:14:30;;;;;;;2.57;1.60;;;26.70;94.90;;;;;;5014440;28;20186;-63
2021/08/10 08:16:55;;;;;;;1.60;1.50;;;27.20;93.90;;;;;;5014005;28;20380;-63
2021/08/10 08:19:21;;;;;;;1.60;1.50;;;27.60;92.30;;;;;;5014385;28;20199;-65
2021/08/10 08:21:47;;;;;;;2.00;1.90;;;27.50;92.50;;;;;;5014361;28;20660;-64
2021/08/10 08:24:13;;;;;;;2.50;2.30;;;27.60;93.20;;;;;;5015088;28;20322;-66
2021/08/10 08:26:39;;;;;;;1.80;1.70;;;28.20;91.90;;;;;;5033703;28;20254;-64
2021/08/10 08:29:04;;;;;;;2.00;1.80;;;28.80;89.20;;;;;;5032603;28;20949;-65
2021/08/10 08:31:30;;;;;;;1.70;1.60;;;29.10;88.90;;;;;;5033779;28;20225;-64
2021/08/10 08:33:56;;;;;;;2.60;1.73;;;29.60;88.50;;;;;;5033665;28;20202;-63
2021/08/10 08:36:21;;;;;;;1.47;1.37;;;30.00;86.90;;;;;;5033927;28;20296;-64
2021/08/10 08:38:47;;;;;;;1.57;1.47;;;30.30;84.70;;;;;;5033567;28;20194;-64
2021/08/10 08:41:14;;;;;;;1.63;1.50;;;30.50;80.30;;;;;;5033474;28;20305;-64
2021/08/10 08:43:40;;;;;;;4.03;1.80;;;30.70;81.20;;;;;;5033988;28;20269;-63
2021/08/10 08:46:06;;;;;;;1.77;1.67;;;30.70;81.00;;;;;;5033741;28;20940;-64
2021/08/10 08:48:32;;;;;;;6.43;2.20;;;30.40;80.40;;;;;;5022075;28;20248;-62
2021/08/10 08:51:00;;;;;;;1.97;1.30;;;30.20;80.80;;;;;;5014035;28;20438;-62
2021/08/10 08:53:27;;;;;;;3.77;1.63;;;30.40;79.50;;;;;;5014105;28;20422;-63
2021/08/10 08:55:53;;;;;;;1.90;1.53;;;31.00;79.30;;;;;;5013721;28;20436;-64
2021/08/10 08:58:19;;;;;;;2.03;1.87;;;31.60;75.40;;;;;;5013544;28;20762;-63
2021/08/10 09:00:45;;;;;;;1.60;1.50;;;31.80;74.10;;;;;;5013814;28;20488;-64
2021/08/10 09:03:11;;;;;;;2.00;1.80;;;31.60;72.50;;;;;;5013639;28;20932;-63
2021/08/10 09:05:39;;;;;;;1.60;1.50;;;31.50;75.00;;;;;;5013745;28;20171;-63
2021/08/10 09:08:45;;;;;;;1.73;1.63;;;31.50;72.80;;;;;;5013215;28;20202;-65
2021/08/10 09:11:17;;;;;;;2.00;1.90;;;31.80;71.50;;;;;;5002989;28;20465;-62
2021/08/10 09:13:56;;;;;;;2.37;2.03;;;31.80;72.20;;;;;;5013779;28;20487;-64
2021/08/10 09:16:22;;;;;;;2.50;1.77;;;31.40;70.80;;;;;;5013580;28;20457;-63
2021/08/10 09:18:47;;;;;;;3.07;1.93;;;30.70;72.80;;;;;;5029620;28;20422;-62
2021/08/10 09:21:16;;;;;;;2.40;2.20;;;30.10;74.40;;;;;;5033193;28;20209;-64
2021/08/10 09:23:50;;;;;;;2.40;1.50;;;29.60;75.60;;;;;;5032118;28;20657;-62
2021/08/10 09:26:23;;;;;;;2.50;1.83;;;29.20;78.20;;;;;;5033316;28;20420;-62
2021/08/10 09:28:55;;;;;;;2.43;2.23;;;28.70;79.30;;;;;;5032877;28;20976;-62
2021/08/10 09:31:30;;;;;;;2.53;2.33;;;28.50;81.50;;;;;;5033054;28;20399;-63
2021/08/10 09:33:57;;;;;;;1.60;1.50;;;28.30;81.00;;;;;;5032125;28;20512;-64
2021/08/10 09:36:24;;;;;;;2.30;2.03;;;28.20;81.60;;;;;;5029824;28;20490;-64
2021/08/10 09:38:50;;;;;;;1.60;1.50;;;28.10;81.50;;;;;;5012849;28;20427;-63
2021/08/10 09:41:16;;;;;;;1.70;1.57;;;28.00;80.90;;;;;;5012203;28;20392;-64
2021/08/10 09:43:43;;;;;;;1.97;1.30;;;28.00;81.70;;;;;;5013202;28;20515;-63
2021/08/10 09:46:20;;;;;;;1.80;1.70;;;28.00;81.60;;;;;;5014283;28;20421;-65
2021/08/10 09:48:49;;;;;;;2.03;1.60;;;28.30;79.60;;;;;;5032620;28;20810;-63
2021/08/10 09:51:17;;;;;;;2.10;1.90;;;28.60;79.80;;;;;;5032893;28;20891;-62
2021/08/10 09:53:52;;;;;;;2.30;1.80;;;28.70;81.20;;;;;;5036655;28;20405;-63
2021/08/10 09:56:18;;;;;;;3.10;1.67;;;28.70;79.30;;;;;;5034665;28;20439;-63
2021/08/10 09:59:00;;;;;;;2.70;1.83;;;28.60;80.20;;;;;;5016499;28;20404;-63
2021/08/10 10:01:37;;;;;;;2.07;1.97;;;28.40;79.90;;;;;;5016976;28;20180;-62
2021/08/10 10:04:15;;;;;;;2.50;1.70;;;28.60;79.80;;;;;;5017155;28;20385;-64
2021/08/10 10:06:41;;;;;;;2.63;1.60;;;28.90;77.70;;;;;;5016593;28;20500;-62
2021/08/10 10:09:07;;;;;;;2.33;2.03;;;29.00;77.40;;;;;;5016744;28;20440;-64
2021/08/10 10:11:38;;;;;;;2.27;2.10;;;28.90;78.70;;;;;;5016794;28;20899;-62
2021/08/10 10:14:05;;;;;;;2.50;1.97;;;28.50;79.60;;;;;;5016800;28;20413;-63
2021/08/10 10:16:32;;;;;;;2.00;1.90;;;28.20;80.20;;;;;;5016436;28;20942;-64
2021/08/10 10:19:05;;;;;;;1.83;1.70;;;28.20;81.20;;;;;;5016415;28;20959;-65
2021/08/10 10:21:32;;;;;;;3.87;1.60;;;28.20;81.90;;;;;;5016508;28;20879;-62
2021/08/10 10:24:01;;;;;;;1.80;1.70;;;28.40;80.60;;;;;;5016804;28;20421;-64
2021/08/10 10:26:30;;;;;;;3.00;2.60;;;28.50;81.30;;;;;;5023798;28;20424;-62
2021/08/10 10:28:56;;;;;;;2.30;1.40;;;28.70;82.00;;;;;;5035949;28;20406;-63
2021/08/10 10:31:22;;;;;;;2.87;1.90;;;28.80;80.80;;;;;;5036245;28;20432;-63
2021/08/10 10:33:49;;;;;;;2.20;2.00;;;28.80;80.00;;;;;;5036410;28;20735;-63
2021/08/10 10:36:15;;;;;;;1.50;1.40;;;28.60;80.60;;;;;;5036220;28;20431;-64
2021/08/10 10:38:43;;;;;;;1.63;1.53;;;28.50;79.90;;;;;;5035873;28;20754;-63
2021/08/10 10:41:11;;;;;;;2.07;1.70;;;28.40;80.30;;;;;;5035774;28;20939;-63
2021/08/10 10:43:36;;;;;;;1.50;1.40;;;28.20;79.00;;;;;;5035962;28;20807;-61
2021/08/10 10:46:32;;;;;;;1.67;1.57;;;28.00;79.70;;;;;;5036079;28;20388;-63
2021/08/10 10:49:00;;;;;;;1.70;1.60;;;27.80;82.30;;;;;;5035082;28;20217;-63
2021/08/10 10:51:29;;;;;;;2.13;1.93;;;27.90;83.40;;;;;;5035734;28;20379;-63
2021/08/10 10:54:23;;;;;;;1.70;1.43;;;28.00;82.30;;;;;;5034570;28;20413;-62
2021/08/10 10:56:50;;;;;;;2.10;1.83;;;28.10;79.60;;;;;;5020721;28;21375;-63
2021/08/10 10:59:21;;;;;;;1.77;1.67;;;28.30;81.90;;;;;;5015890;28;20389;-66
2021/08/10 11:01:47;;;;;;;2.20;1.90;;;28.50;83.00;;;;;;5015982;28;20385;-63
2021/08/10 11:04:13;;;;;;;1.40;1.30;;;28.70;80.10;;;;;;5015731;28;20885;-64
2021/08/10 11:06:43;;;;;;;2.50;1.87;;;29.00;79.80;;;;;;5014213;28;20182;-63
2021/08/10 11:09:38;;;;;;;2.00;1.70;;;29.20;81.40;;;;;;5015569;28;20540;-65
2021/08/10 11:12:24;;;;;;;2.00;1.87;;;29.30;77.40;;;;;;5015636;28;20455;-63
2021/08/10 11:14:50;;;;;;;2.47;1.70;;;29.20;76.70;;;;;;5015590;28;20442;-64
2021/08/10 11:17:17;;;;;;;1.60;1.50;;;29.00;81.20;;;;;;5015144;28;20381;-62
2021/08/10 11:19:44;;;;;;;1.67;1.57;;;28.90;80.00;;;;;;5015357;28;20253;-64
2021/08/10 11:22:16;;;;;;;1.70;1.60;;;28.60;82.50;;;;;;5016643;28;20384;-64
2021/08/10 11:24:47;;;;;;;1.97;1.37;;;28.40;81.90;;;;;;5035694;28;20384;-66
2021/08/10 11:27:32;;;;;;;1.53;1.43;;;28.50;80.00;;;;;;5034860;28;20408;-65
2021/08/10 11:29:58;;;;;;;1.60;1.50;;;28.10;79.10;;;;;;5034663;28;20426;-62
2021/08/10 11:32:36;;;;;;;3.30;2.07;;;27.80;80.40;;;;;;5035078;28;20905;-64
2021/08/10 11:35:21;;;;;;;1.50;1.37;;;27.80;83.70;;;;;;5034983;28;20494;-64
2021/08/10 11:38:08;;;;;;;1.63;1.53;;;27.60;81.60;;;;;;5033005;28;20395;-64
2021/08/10 11:41:00;;;;;;;2.07;1.97;;;27.70;82.00;;;;;;5034815;28;20454;-64
2021/08/10 11:43:42;;;;;;;1.30;1.30;;;27.80;80.50;;;;;;5034715;28;20397;-62
2021/08/10 11:46:14;;;;;;;1.73;1.63;;;28.00;80.90;;;;;;5035079;28;20423;-64
2021/08/10 11:48:46;;;;;;;2.53;1.83;;;28.10;81.80;;;;;;5034365;28;20391;-63
2021/08/10 11:51:22;;;;;;;1.80;1.70;;;28.10;81.60;;;;;;5034855;28;20471;-64
2021/08/10 11:53:49;;;;;;;2.03;1.70;;;28.10;81.00;;;;;;5015642;28;20452;-62
2021/08/10 11:56:34;;;;;;;2.10;1.90;;;28.10;82.40;;;;;;5014938;28;20551;-64
2021/08/10 11:59:02;;;;;;;1.60;1.50;;;28.10;80.20;;;;;;5014675;28;20454;-65
2021/08/10 12:01:29;;;;;;;1.40;1.30;;;28.00;84.40;;;;;;5014804;28;20417;-62
2021/08/10 12:04:06;;;;;;;2.30;1.70;;;27.90;83.80;;;;;;5014656;28;20442;-65
2021/08/10 12:06:32;;;;;;;2.73;1.80;;;27.90;84.10;;;;;;5014653;28;20467;-62
2021/08/10 12:09:04;;;;;;;2.00;1.90;;;27.60;82.70;;;;;;5014426;28;20409;-64
2021/08/10 12:11:31;;;;;;;2.63;2.43;;;27.60;82.80;;;;;;5014850;28;20507;-63
2021/08/10 12:14:18;;;;;;;1.90;1.80;;;27.40;82.50;;;;;;5014416;28;20743;-63
2021/08/10 12:17:03;;;;;;;1.50;1.40;;;27.10;83.00;;;;;;5013976;28;20846;-62
2021/08/10 12:19:49;;;;;;;1.43;1.33;;;27.00;84.20;;;;;;5014607;28;20495;-64
2021/08/10 12:22:19;;;;;;;2.43;1.57;;;27.00;88.00;;;;;;5024045;28;20425;-64
2021/08/10 12:24:46;;;;;;;2.10;2.00;;;27.00;84.90;;;;;;5034246;28;20486;-62
2021/08/10 12:27:14;;;;;;;1.83;1.70;;;26.90;83.80;;;;;;5033831;28;20382;-64
2021/08/10 12:29:44;;;;;;;2.00;1.90;;;26.90;84.80;;;;;;5033936;28;20455;-64
2021/08/10 12:32:13;;;;;;;1.80;1.70;;;26.90;84.20;;;;;;5034324;28;20798;-63
2021/08/10 12:34:40;;;;;;;1.90;1.80;;;26.90;84.50;;;;;;5033976;28;20398;-63
2021/08/10 12:37:07;;;;;;;1.60;1.50;;;27.00;85.90;;;;;;5022659;28;20460;-62
2021/08/10 12:39:44;;;;;;;2.13;1.93;;;27.00;84.70;;;;;;5014149;28;20431;-64
2021/08/10 12:42:11;;;;;;;1.63;1.53;;;26.90;84.00;;;;;;5014237;28;20415;-62
2021/08/10 12:44:38;;;;;;;1.60;1.47;;;26.80;86.60;;;;;;5014281;28;20436;-64
2021/08/10 12:47:06;;;;;;;1.80;1.70;;;26.70;85.10;;;;;;5013663;28;20431;-62
2021/08/10 12:49:33;;;;;;;2.70;2.50;;;26.70;85.60;;;;;;5013876;28;20444;-64
2021/08/10 12:52:06;;;;;;;1.90;1.80;;;26.70;86.00;;;;;;5014065;28;20394;-62
2021/08/10 12:54:35;;;;;;;2.03;1.90;;;26.70;87.20;;;;;;5013940;28;20412;-64